createdAt,value
2022-12-08T00:01:21.760Z,0.38
2022-12-08T00:03:48.872Z,0.70
2022-12-08T00:06:27.639Z,0.60
2022-12-08T00:08:54.255Z,0.50
2022-12-08T00:11:21.008Z,0.60
2022-12-08T00:13:47.704Z,0.30
2022-12-08T00:16:14.757Z,0.45
2022-12-08T00:18:41.510Z,0.20
2022-12-08T00:21:08.116Z,0.50
2022-12-08T00:23:34.790Z,0.30
2022-12-08T00:26:04.756Z,0.35
2022-12-08T00:30:58.599Z,0.30
2022-12-08T00:33:25.226Z,0.50
2022-12-08T00:35:51.847Z,0.40
2022-12-08T00:38:18.603Z,0.50
2022-12-08T00:40:46.103Z,0.50
2022-12-08T00:43:14.835Z,0.52
2022-12-08T00:45:41.605Z,0.63
2022-12-08T00:48:08.365Z,0.65
2022-12-08T00:50:35.068Z,0.60
2022-12-08T00:53:01.723Z,0.70
2022-12-08T00:55:28.317Z,0.98
2022-12-08T00:57:54.941Z,0.70
2022-12-08T01:00:21.645Z,0.70
2022-12-08T01:02:48.326Z,0.90
2022-12-08T01:05:14.940Z,0.80
2022-12-08T01:07:41.598Z,1.70
2022-12-08T01:10:08.585Z,0.82
2022-12-08T01:12:35.432Z,0.45
2022-12-08T01:15:02.871Z,0.70
2022-12-08T01:17:29.810Z,0.88
2022-12-08T01:19:56.428Z,0.57
2022-12-08T01:22:23.079Z,0.77
2022-12-08T01:24:49.707Z,0.70
2022-12-08T01:27:16.442Z,1.30
2022-12-08T01:29:43.192Z,1.00
2022-12-08T01:32:09.810Z,1.20
2022-12-08T01:34:36.441Z,1.40
2022-12-08T01:37:03.038Z,1.65
2022-12-08T01:39:29.710Z,2.00
2022-12-08T01:41:56.340Z,1.92
2022-12-08T01:44:22.912Z,1.90
2022-12-08T01:46:49.506Z,2.70
2022-12-08T01:49:30.700Z,3.28
2022-12-08T01:52:00.699Z,4.20
2022-12-08T01:57:05.250Z,7.15
2022-12-08T01:59:33.108Z,9.20
2022-12-08T02:02:06.616Z,8.00
2022-12-08T02:04:33.341Z,9.70
2022-12-08T02:07:03.675Z,9.90
2022-12-08T02:09:34.314Z,9.85
2022-12-08T02:12:00.958Z,9.15
2022-12-08T02:14:27.609Z,10.60
2022-12-08T02:17:29.038Z,8.57
2022-12-08T02:20:13.012Z,9.07
2022-12-08T02:22:52.206Z,7.82
2022-12-08T02:25:46.662Z,7.25
2022-12-08T02:28:37.214Z,4.47
2022-12-08T02:31:17.669Z,2.97
2022-12-08T02:34:00.634Z,2.42
2022-12-08T02:36:36.186Z,2.05
2022-12-08T02:39:27.109Z,1.70
2022-12-08T02:42:10.106Z,1.38
2022-12-08T02:44:43.160Z,1.10
2022-12-08T02:47:18.188Z,1.30
2022-12-08T02:49:44.886Z,1.20
2022-12-08T02:52:14.578Z,1.20
2022-12-08T02:54:49.375Z,0.60
2022-12-08T02:57:20.955Z,0.82
2022-12-08T03:00:14.419Z,1.38
2022-12-08T03:02:45.643Z,0.63
2022-12-08T03:05:18.368Z,0.32
2022-12-08T03:07:55.273Z,0.40
2022-12-08T03:10:30.426Z,0.30
2022-12-08T03:13:01.264Z,0.60
2022-12-08T03:15:27.983Z,0.20
2022-12-08T03:17:58.083Z,0.20
2022-12-08T03:20:25.864Z,0.28
2022-12-08T03:22:53.505Z,0.20
2022-12-08T03:25:22.029Z,0.20
2022-12-08T03:27:48.715Z,0.20
2022-12-08T03:30:15.505Z,0.30
2022-12-08T03:32:48.341Z,0.40
2022-12-08T03:35:16.548Z,0.40
2022-12-08T03:37:43.460Z,0.98
2022-12-08T03:40:12.250Z,0.50
2022-12-08T03:42:38.889Z,0.50
2022-12-08T03:45:06.149Z,0.95
2022-12-08T03:47:32.802Z,0.68
2022-12-08T03:49:59.456Z,0.50
2022-12-08T03:52:26.055Z,0.50
2022-12-08T03:54:52.655Z,0.60
2022-12-08T03:57:19.466Z,0.80
2022-12-08T03:59:46.086Z,0.60
2022-12-08T04:02:12.808Z,0.63
2022-12-08T04:04:39.494Z,0.82
2022-12-08T04:07:06.137Z,1.00
2022-12-08T04:09:32.756Z,1.35
2022-12-08T04:11:59.379Z,1.05
2022-12-08T04:14:26.010Z,1.20
2022-12-08T04:16:52.752Z,1.33
2022-12-08T04:19:19.391Z,1.20
2022-12-08T04:21:46.044Z,1.27
2022-12-08T04:24:12.678Z,1.58
2022-12-08T04:26:39.423Z,2.40
2022-12-08T04:29:06.002Z,1.00
2022-12-08T04:31:32.876Z,1.73
2022-12-08T04:33:59.518Z,2.00
2022-12-08T04:36:26.100Z,1.50
2022-12-08T04:38:52.713Z,1.33
2022-12-08T04:41:19.440Z,1.40
2022-12-08T04:43:46.130Z,1.80
2022-12-08T04:46:12.956Z,2.05
2022-12-08T04:48:39.776Z,1.38
2022-12-08T04:51:06.740Z,1.38
2022-12-08T04:53:33.447Z,1.75
2022-12-08T04:56:00.093Z,1.33
2022-12-08T04:58:26.697Z,1.70
2022-12-08T05:00:53.428Z,1.30
2022-12-08T05:03:25.285Z,1.30
2022-12-08T05:05:55.092Z,1.60
2022-12-08T05:08:21.792Z,1.60
2022-12-08T05:10:48.575Z,1.30
2022-12-08T05:13:15.317Z,1.52
2022-12-08T05:15:41.990Z,1.30
2022-12-08T05:18:08.598Z,1.30
2022-12-08T05:20:35.483Z,1.65
2022-12-08T05:23:02.096Z,1.63
2022-12-08T05:25:28.904Z,1.63
2022-12-08T05:28:17.624Z,1.20
2022-12-08T05:30:42.220Z,1.38
2022-12-08T05:33:08.870Z,1.80
2022-12-08T05:35:35.500Z,1.58
2022-12-08T05:38:02.091Z,2.20
2022-12-08T05:40:28.700Z,1.50
2022-12-08T05:42:55.299Z,1.45
2022-12-08T05:45:21.877Z,1.77
2022-12-08T05:47:48.560Z,2.38
2022-12-08T05:50:15.250Z,2.00
2022-12-08T05:52:41.896Z,1.70
2022-12-08T05:55:08.904Z,1.10
2022-12-08T05:57:35.639Z,2.00
2022-12-08T06:00:03.032Z,1.60
2022-12-08T06:02:30.101Z,1.38
2022-12-08T06:04:56.919Z,2.15
2022-12-08T06:07:23.630Z,1.92
2022-12-08T06:09:50.295Z,2.58
2022-12-08T06:12:16.999Z,1.85
2022-12-08T06:14:43.792Z,1.88
2022-12-08T06:17:10.494Z,2.22
2022-12-08T06:19:37.191Z,2.13
2022-12-08T06:22:03.951Z,2.25
2022-12-08T06:24:30.549Z,1.90
2022-12-08T06:26:57.337Z,2.00
2022-12-08T06:29:24.028Z,2.40
2022-12-08T06:31:51.237Z,1.90
2022-12-08T06:34:17.973Z,1.08
2022-12-08T06:36:44.658Z,0.98
2022-12-08T06:39:11.278Z,1.20
2022-12-08T06:41:38.485Z,1.10
2022-12-08T06:44:05.134Z,1.13
2022-12-08T06:46:31.920Z,1.10
2022-12-08T06:48:58.757Z,1.08
2022-12-08T06:51:25.375Z,0.98
2022-12-08T06:53:52.030Z,1.02
2022-12-08T06:56:18.666Z,1.45
2022-12-08T06:58:50.550Z,1.10
2022-12-08T07:01:18.736Z,1.40
2022-12-08T07:03:45.516Z,0.82
2022-12-08T07:06:23.974Z,0.80
2022-12-08T07:08:50.957Z,0.95
2022-12-08T07:11:21.506Z,0.63
2022-12-08T07:13:48.892Z,1.65
2022-12-08T07:16:15.995Z,1.20
2022-12-08T07:18:42.865Z,1.20
2022-12-08T07:21:13.281Z,1.13
2022-12-08T07:23:40.278Z,1.65
2022-12-08T07:26:07.779Z,1.50
2022-12-08T07:28:35.205Z,2.00
2022-12-08T07:31:01.920Z,1.83
2022-12-08T07:33:28.629Z,1.70
2022-12-08T07:35:55.977Z,1.88
2022-12-08T07:38:24.833Z,2.03
2022-12-08T07:40:52.509Z,2.72
2022-12-08T07:43:19.228Z,1.75
2022-12-08T07:45:46.080Z,1.50
2022-12-08T07:48:12.880Z,1.30
2022-12-08T07:50:39.781Z,1.10
2022-12-08T07:53:06.466Z,1.30
2022-12-08T07:55:33.169Z,1.17
2022-12-08T07:57:59.844Z,1.17
2022-12-08T08:00:27.607Z,1.23
2022-12-08T08:02:54.413Z,2.10
2022-12-08T08:05:21.965Z,1.98
2022-12-08T08:07:48.710Z,2.03
2022-12-08T08:10:15.464Z,2.53
2022-12-08T08:12:42.045Z,3.17
2022-12-08T08:15:09.013Z,2.65
2022-12-08T08:17:36.756Z,4.00
2022-12-08T08:20:07.595Z,3.40
2022-12-08T08:22:34.415Z,3.10
2022-12-08T08:25:01.020Z,2.60
2022-12-08T08:27:27.649Z,2.33
2022-12-08T08:29:54.383Z,2.33
2022-12-08T08:32:21.172Z,2.22
2022-12-08T08:34:47.840Z,2.42
2022-12-08T08:37:14.494Z,1.60
2022-12-08T08:39:41.159Z,1.98
2022-12-08T08:42:07.785Z,1.73
2022-12-08T08:44:34.544Z,2.13
2022-12-08T08:47:01.124Z,1.45
2022-12-08T08:49:27.923Z,1.88
2022-12-08T08:51:54.577Z,1.92
2022-12-08T08:54:21.146Z,1.73
2022-12-08T08:56:47.834Z,2.22
2022-12-08T08:59:14.488Z,2.00
2022-12-08T09:01:41.154Z,2.42
2022-12-08T09:04:07.838Z,2.53
2022-12-08T09:06:34.626Z,2.80
2022-12-08T09:09:01.318Z,2.92
2022-12-08T09:11:27.980Z,2.85
2022-12-08T09:13:54.723Z,3.35
2022-12-08T09:16:21.875Z,3.13
2022-12-08T09:18:48.589Z,3.30
2022-12-08T09:21:16.930Z,3.00
2022-12-08T09:23:43.809Z,4.05
2022-12-08T09:26:10.641Z,3.40
2022-12-08T09:28:37.507Z,2.60
2022-12-08T09:31:04.370Z,2.47
2022-12-08T09:33:31.106Z,1.88
2022-12-08T09:36:02.251Z,1.90
2022-12-08T09:38:28.974Z,2.17
2022-12-08T09:40:55.592Z,1.80
2022-12-08T09:43:49.983Z,1.80
2022-12-08T09:46:16.755Z,1.40
2022-12-08T09:48:45.543Z,1.52
2022-12-08T09:51:12.331Z,1.13
2022-12-08T09:53:54.927Z,1.70
2022-12-08T09:56:23.082Z,1.30
2022-12-08T09:58:57.887Z,1.50
2022-12-08T10:01:31.240Z,1.42
2022-12-08T10:03:58.093Z,2.30
2022-12-08T10:06:37.447Z,1.58
2022-12-08T10:09:12.818Z,1.73
2022-12-08T10:12:01.553Z,1.60
2022-12-08T10:14:42.193Z,1.38
2022-12-08T10:17:35.242Z,1.10
2022-12-08T10:20:12.494Z,1.40
2022-12-08T10:22:44.475Z,1.17
2022-12-08T10:25:18.174Z,1.45
2022-12-08T10:27:44.796Z,1.38
2022-12-08T10:30:15.079Z,1.65
2022-12-08T10:32:42.364Z,1.48
2022-12-08T10:35:13.642Z,2.20
2022-12-08T10:37:40.294Z,1.80
2022-12-08T10:40:17.049Z,1.90
2022-12-08T10:42:48.549Z,1.70
2022-12-08T10:45:20.610Z,1.80
2022-12-08T10:48:04.255Z,1.67
2022-12-08T10:51:02.273Z,0.77
2022-12-08T10:53:32.773Z,1.50
2022-12-08T10:56:02.572Z,1.50
2022-12-08T11:01:12.986Z,2.17
2022-12-08T11:03:56.725Z,1.60
2022-12-08T11:06:33.964Z,1.70
2022-12-08T11:09:02.825Z,1.05
2022-12-08T11:11:56.732Z,0.82
2022-12-08T11:14:26.957Z,0.60
2022-12-08T11:17:22.902Z,0.50
2022-12-08T11:19:59.765Z,0.75
2022-12-08T11:22:30.924Z,0.32
2022-12-08T11:25:11.991Z,0.30
2022-12-08T11:27:42.988Z,0.40
2022-12-08T11:30:27.930Z,0.38
2022-12-08T11:33:02.089Z,0.17
2022-12-08T11:35:37.540Z,0.20
2022-12-08T11:38:22.586Z,0.30
2022-12-08T11:40:52.321Z,0.50
2022-12-08T11:43:33.860Z,0.30
2022-12-08T11:46:12.024Z,0.30
2022-12-08T11:49:12.351Z,0.40
2022-12-08T11:51:54.426Z,0.60
2022-12-08T11:54:35.330Z,0.32
2022-12-08T11:57:05.859Z,0.88
2022-12-08T11:59:43.947Z,0.60
2022-12-08T12:02:25.666Z,0.43
2022-12-08T12:05:33.243Z,0.43
2022-12-08T12:08:17.179Z,0.40
2022-12-08T12:10:54.809Z,0.57
2022-12-08T12:13:21.378Z,0.70
2022-12-08T12:16:06.900Z,0.60
2022-12-08T12:18:43.330Z,0.50
2022-12-08T12:21:26.666Z,0.50
2022-12-08T12:23:56.611Z,0.50
2022-12-08T12:26:28.265Z,0.50
2022-12-08T12:28:57.952Z,0.60
2022-12-08T12:31:35.542Z,0.43
2022-12-08T12:34:21.723Z,0.50
2022-12-08T12:37:11.169Z,0.70
2022-12-08T12:39:52.666Z,0.63
2022-12-08T12:42:41.803Z,0.60
2022-12-08T12:45:14.151Z,0.52
2022-12-08T12:47:56.022Z,0.30
2022-12-08T12:50:35.136Z,0.40
2022-12-08T12:53:09.204Z,0.40
2022-12-08T12:55:58.393Z,0.40
2022-12-08T12:58:28.065Z,0.40
2022-12-08T13:01:12.997Z,0.30
2022-12-08T13:03:46.655Z,0.30
2022-12-08T13:06:14.838Z,0.35
2022-12-08T13:08:54.956Z,0.98
2022-12-08T13:11:21.948Z,0.30
2022-12-08T13:14:01.432Z,0.43
2022-12-08T13:16:31.008Z,0.47
2022-12-08T13:18:59.028Z,0.30
2022-12-08T13:21:31.560Z,0.50
2022-12-08T13:24:15.560Z,0.40
2022-12-08T13:26:46.287Z,0.68
2022-12-08T13:29:23.329Z,0.82
2022-12-08T13:31:56.574Z,0.52
2022-12-08T13:34:43.770Z,0.65
2022-12-08T13:37:13.408Z,0.80
2022-12-08T13:39:40.270Z,0.95
2022-12-08T13:42:12.763Z,0.70
2022-12-08T13:49:03.342Z,0.90
2022-12-08T13:57:28.353Z,1.20
2022-12-08T13:59:57.009Z,1.35
2022-12-08T14:02:27.460Z,1.50
2022-12-08T14:05:17.464Z,2.00
2022-12-08T14:07:41.552Z,1.67
2022-12-08T14:10:19.683Z,1.70
2022-12-08T14:12:47.742Z,1.80
2022-12-08T14:15:14.991Z,1.90
2022-12-08T14:17:44.752Z,2.10
2022-12-08T14:20:24.741Z,2.20
2022-12-08T14:22:51.724Z,2.45
2022-12-08T14:25:18.662Z,2.15
2022-12-08T14:27:45.365Z,2.60
2022-12-08T14:30:21.771Z,2.28
2022-12-08T14:32:49.151Z,1.83
2022-12-08T14:35:23.540Z,1.77
2022-12-08T14:37:51.427Z,1.50
2022-12-08T14:40:34.154Z,1.90
2022-12-08T14:43:10.002Z,1.92
2022-12-08T14:45:42.232Z,1.20
2022-12-08T14:48:39.216Z,1.30
2022-12-08T14:51:09.564Z,1.23
2022-12-08T14:53:46.933Z,1.90
2022-12-08T14:56:18.856Z,1.20
2022-12-08T14:58:45.583Z,1.35
2022-12-08T15:01:17.123Z,1.67
2022-12-08T15:03:50.387Z,2.20
2022-12-08T15:06:17.837Z,1.67
2022-12-08T15:09:14.722Z,1.55
2022-12-08T15:11:41.418Z,1.75
2022-12-08T15:14:36.820Z,2.28
2022-12-08T15:17:04.274Z,2.33
2022-12-08T15:19:32.329Z,2.70
2022-12-08T15:22:19.826Z,3.25
2022-12-08T15:24:46.732Z,2.92
2022-12-08T15:27:20.809Z,3.30
2022-12-08T15:29:48.380Z,2.83
2022-12-08T15:32:21.838Z,2.95
2022-12-08T15:34:48.521Z,3.22
2022-12-08T15:37:19.968Z,3.42
2022-12-08T15:39:46.643Z,3.88
2022-12-08T15:42:13.239Z,3.65
2022-12-08T15:44:39.897Z,3.78
2022-12-08T15:47:06.710Z,3.50
2022-12-08T15:49:33.430Z,3.70
2022-12-08T15:52:10.825Z,3.78
2022-12-08T15:54:38.063Z,4.35
2022-12-08T15:57:20.170Z,4.43
2022-12-08T15:59:51.455Z,3.75
2022-12-08T16:02:22.978Z,3.90
2022-12-08T16:07:38.564Z,3.75
2022-12-08T16:10:06.877Z,3.33
2022-12-08T16:13:13.420Z,3.30
2022-12-08T16:15:50.049Z,3.00
2022-12-08T16:18:07.626Z,4.30
2022-12-08T16:23:41.791Z,4.88
2022-12-08T16:27:01.209Z,4.57
2022-12-08T16:29:08.414Z,4.72
2022-12-08T16:31:35.138Z,4.80
2022-12-08T16:34:01.965Z,4.65
2022-12-08T16:36:28.644Z,5.13
2022-12-08T16:38:55.339Z,5.45
2022-12-08T16:41:22.024Z,8.68
2022-12-08T16:43:48.686Z,6.78
2022-12-08T16:46:19.299Z,5.38
2022-12-08T16:48:47.084Z,5.00
2022-12-08T16:51:19.753Z,5.10
2022-12-08T16:53:50.309Z,4.65
2022-12-08T16:56:20.606Z,4.60
2022-12-08T16:58:47.652Z,4.38
2022-12-08T17:01:15.734Z,5.22
2022-12-08T17:03:51.698Z,4.68
2022-12-08T17:06:28.544Z,5.72
2022-12-08T17:08:55.238Z,5.35
2022-12-08T17:11:23.112Z,5.13
2022-12-08T17:13:49.834Z,6.45
2022-12-08T17:16:17.845Z,6.40
2022-12-08T17:18:44.937Z,7.13
2022-12-08T17:21:12.483Z,5.75
2022-12-08T17:23:39.951Z,4.93
2022-12-08T17:26:06.779Z,5.70
2022-12-08T17:28:58.826Z,3.22
2022-12-08T17:31:23.387Z,2.72
2022-12-08T17:33:52.844Z,2.10
2022-12-08T17:36:19.581Z,2.13
2022-12-08T17:38:46.252Z,1.50
2022-12-08T17:41:12.879Z,2.10
2022-12-08T17:43:39.492Z,1.48
2022-12-08T17:46:06.231Z,1.83
2022-12-08T17:48:32.975Z,1.50
2022-12-08T17:50:59.649Z,1.48
2022-12-08T17:53:26.353Z,2.03
2022-12-08T17:55:54.230Z,1.40
2022-12-08T17:58:21.444Z,1.40
2022-12-08T18:00:48.293Z,1.67
2022-12-08T18:03:15.276Z,1.55
2022-12-08T18:05:41.894Z,1.55
2022-12-08T18:08:08.605Z,1.35
2022-12-08T18:10:35.281Z,0.90
2022-12-08T18:13:01.999Z,1.52
2022-12-08T18:15:28.689Z,1.13
2022-12-08T18:17:55.318Z,1.75
2022-12-08T18:20:22.013Z,1.33
2022-12-08T18:22:48.589Z,1.48
2022-12-08T18:25:15.315Z,1.60
2022-12-08T18:27:43.366Z,1.10
2022-12-08T18:30:13.877Z,1.33
2022-12-08T18:32:40.653Z,1.10
2022-12-08T18:35:07.464Z,1.50
2022-12-08T18:37:34.379Z,1.48
2022-12-08T18:40:00.985Z,1.30
2022-12-08T18:42:27.755Z,1.65
2022-12-08T18:44:56.515Z,1.73
2022-12-08T18:47:23.461Z,1.80
2022-12-08T18:49:50.191Z,1.60
2022-12-08T18:52:20.836Z,2.30
2022-12-08T18:55:08.240Z,2.10
2022-12-08T18:57:37.063Z,2.10
2022-12-08T19:00:05.527Z,3.53
2022-12-08T19:02:32.565Z,3.30
2022-12-08T19:04:59.348Z,2.55
2022-12-08T19:07:26.066Z,17.85
2022-12-08T19:09:52.763Z,5.28
2022-12-08T19:12:19.381Z,3.75
2022-12-08T19:14:46.004Z,3.83
2022-12-08T19:17:12.730Z,4.05
2022-12-08T19:19:40.429Z,4.45
2022-12-08T19:22:07.184Z,5.38
2022-12-08T19:24:33.885Z,4.95
2022-12-08T19:27:00.993Z,5.78
2022-12-08T19:29:27.594Z,6.43
2022-12-08T19:31:55.692Z,5.15
2022-12-08T19:34:22.554Z,4.60
2022-12-08T19:36:49.319Z,5.40
2022-12-08T19:39:17.614Z,4.97
2022-12-08T19:41:44.434Z,4.38
2022-12-08T19:44:18.750Z,4.00
2022-12-08T19:46:45.701Z,4.65
2022-12-08T19:49:12.471Z,4.95
2022-12-08T19:51:39.074Z,4.25
2022-12-08T19:54:05.988Z,5.15
2022-12-08T19:56:32.613Z,5.53
2022-12-08T19:58:59.453Z,6.50
2022-12-08T20:01:26.401Z,5.78
2022-12-08T20:03:53.455Z,4.30
2022-12-08T20:06:20.307Z,5.00
2022-12-08T20:08:50.571Z,5.03
2022-12-08T20:11:17.795Z,5.20
2022-12-08T20:13:44.429Z,5.63
2022-12-08T20:16:11.904Z,5.43
2022-12-08T20:18:40.497Z,6.65
2022-12-08T20:21:07.506Z,5.97
2022-12-08T20:23:34.318Z,5.57
2022-12-08T20:26:05.025Z,7.35
2022-12-08T20:28:32.107Z,6.28
2022-12-08T20:30:59.094Z,6.85
2022-12-08T20:33:27.129Z,6.95
2022-12-08T20:36:00.745Z,9.40
2022-12-08T20:38:28.293Z,7.13
2022-12-08T20:40:55.440Z,8.18
2022-12-08T20:43:22.219Z,9.30
2022-12-08T20:45:49.044Z,8.48
2022-12-08T20:48:15.935Z,8.70
2022-12-08T20:50:42.686Z,9.55
2022-12-08T20:53:09.588Z,8.80
2022-12-08T20:55:36.432Z,10.23
2022-12-08T20:58:03.164Z,12.27
2022-12-08T21:00:30.214Z,10.52
2022-12-08T21:02:57.505Z,10.55
2022-12-08T21:05:24.391Z,11.02
2022-12-08T21:07:51.402Z,8.93
2022-12-08T21:10:18.312Z,8.48
2022-12-08T21:12:45.163Z,9.63
2022-12-08T21:15:12.079Z,10.35
2022-12-08T21:17:39.202Z,11.48
2022-12-08T21:20:07.416Z,9.80
2022-12-08T21:22:34.984Z,9.27
2022-12-08T21:25:02.328Z,8.82
2022-12-08T21:27:29.442Z,9.85
2022-12-08T21:29:56.279Z,10.05
2022-12-08T21:32:28.593Z,9.57
2022-12-08T21:34:57.017Z,9.40
2022-12-08T21:37:23.707Z,10.10
2022-12-08T21:39:50.872Z,9.43
2022-12-08T21:42:21.500Z,10.60
2022-12-08T21:44:49.581Z,10.52
2022-12-08T21:47:16.429Z,10.75
2022-12-08T21:49:43.488Z,10.85
2022-12-08T21:52:10.405Z,10.48
2022-12-08T21:54:37.264Z,10.45
2022-12-08T21:57:04.189Z,9.60
2022-12-08T21:59:31.225Z,10.80
2022-12-08T22:01:58.174Z,10.25
2022-12-08T22:04:25.227Z,10.20
2022-12-08T22:06:52.337Z,9.88
2022-12-08T22:09:19.413Z,10.85
2022-12-08T22:11:46.332Z,9.77
2022-12-08T22:14:15.112Z,10.10
2022-12-08T22:16:44.353Z,10.93
2022-12-08T22:19:11.717Z,10.48
2022-12-08T22:21:38.535Z,11.48
2022-12-08T22:24:05.872Z,12.18
2022-12-08T22:26:32.712Z,11.30
2022-12-08T22:28:59.642Z,13.70
2022-12-08T22:31:26.341Z,12.15
2022-12-08T22:33:53.015Z,12.35
2022-12-08T22:36:21.386Z,13.07
2022-12-08T22:38:48.458Z,13.23
2022-12-08T22:41:15.495Z,12.48
2022-12-08T22:43:42.448Z,12.43
2022-12-08T22:46:16.314Z,12.13
2022-12-08T22:48:43.230Z,13.00
2022-12-08T22:51:10.123Z,13.95
2022-12-08T22:53:36.993Z,13.75
2022-12-08T22:56:08.088Z,12.15
2022-12-08T22:58:36.513Z,14.77
2022-12-08T23:01:03.438Z,14.90
2022-12-08T23:03:30.305Z,14.43
2022-12-08T23:05:57.372Z,12.70
2022-12-08T23:08:24.348Z,13.50
2022-12-08T23:10:52.340Z,13.52
2022-12-08T23:13:19.197Z,14.57
2022-12-08T23:15:45.999Z,13.50
2022-12-08T23:18:17.092Z,13.50
2022-12-08T23:20:43.772Z,13.63
2022-12-08T23:23:10.484Z,14.02
2022-12-08T23:25:43.432Z,14.00
2022-12-08T23:28:10.253Z,14.52
2022-12-08T23:30:39.248Z,14.82
2022-12-08T23:33:06.015Z,15.80
2022-12-08T23:35:32.868Z,15.80
2022-12-08T23:37:59.496Z,16.90
2022-12-08T23:40:26.283Z,16.65
2022-12-08T23:42:53.044Z,17.30
2022-12-08T23:45:19.680Z,16.25
2022-12-08T23:47:46.579Z,15.23
2022-12-08T23:50:13.263Z,17.13
2022-12-08T23:52:40.217Z,16.48
2022-12-08T23:55:07.846Z,16.77
2022-12-08T23:57:37.592Z,15.85
